Time;durP1;ratioP1;P1;durP2;ratioP2;P2;SDS_P1;SDS_P2;PMS_P1;PMS_P2;Temp;Humidity;BMP_temperature;BMP_pressure;BME280_temperature;BME280_humidity;BME280_pressure;Samples;Min_cycle;Max_cycle;Signal;HPM_P1;HPM_P2
2021/01/14 00:01:50;;;;;;;;;;;;;;;0.28;77.55;96907.05;1652062;87;20232;-92
2021/01/14 00:04:36;;;;;;;;;;;;;;;0.25;77.53;96906.77;1688407;85;24930;-91
2021/01/14 00:07:22;;;;;;;;;;;;;;;0.23;77.51;96907.30;1688368;85;22166;-94
2021/01/14 00:10:11;;;;;;;;;;;;;;;0.24;77.52;96899.95;1688091;85;27159;-93
2021/01/14 00:13:01;;;;;;;;;;;;;;;0.23;77.52;96899.58;1688157;85;25737;-93
2021/01/14 00:15:47;;;;;;;;;;;;;;;0.23;77.52;96891.03;1684556;85;20494;-93
2021/01/14 00:18:33;;;;;;;;;;;;;;;0.26;77.51;96890.43;1681219;85;24986;-94
2021/01/14 00:21:20;;;;;;;;;;;;;;;0.28;77.55;96892.89;1661612;85;22198;-95
2021/01/14 00:24:06;;;;;;;;;;;;;;;0.30;77.55;96884.20;1681395;85;26197;-94
2021/01/14 00:26:52;;;;;;;;;;;;;;;0.31;77.57;96887.60;1681743;85;24625;-92
2021/01/14 00:29:38;;;;;;;;;;;;;;;0.29;77.57;96879.95;1681517;85;20217;-93
2021/01/14 00:32:24;;;;;;;;;;;;;;;0.26;77.59;96876.28;1681259;84;25213;-93
2021/01/14 00:35:11;;;;;;;;;;;;;;;0.26;77.62;96875.45;1708444;83;22133;-92
2021/01/14 00:37:59;;;;;;;;;;;;;;;0.23;77.59;96866.14;1681416;85;26231;-94
2021/01/14 00:40:46;;;;;;;;;;;;;;;0.21;77.62;96863.29;1681436;85;24817;-94
2021/01/14 00:43:33;;;;;;;;;;;;;;;0.22;77.62;96868.33;1681280;85;20231;-96
2021/01/14 00:46:21;;;;;;;;;;;;;;;0.21;77.63;96867.98;1681389;85;24917;-94
2021/01/14 00:49:07;;;;;;;;;;;;;;;0.20;77.65;96865.03;1681606;85;22132;-92
2021/01/14 00:51:53;;;;;;;;;;;;;;;0.18;77.67;96866.84;1681532;85;27044;-93
2021/01/14 00:54:39;;;;;;;;;;;;;;;0.17;77.68;96861.32;1681468;85;24643;-94
2021/01/14 00:57:27;;;;;;;;;;;;;;;0.15;77.70;96856.73;1679273;83;20334;-93
2021/01/14 01:00:13;;;;;;;;;;;;;;;0.11;77.72;96857.78;1664512;86;24725;-93
2021/01/14 01:03:00;;;;;;;;;;;;;;;0.09;77.74;96853.66;1664565;86;22335;-93
2021/01/14 01:05:46;;;;;;;;;;;;;;;0.08;77.77;96852.82;1664458;85;26372;-92
2021/01/14 01:08:35;;;;;;;;;;;;;;;0.06;77.80;96849.94;1664719;86;24839;-93
2021/01/14 01:11:21;;;;;;;;;;;;;;;0.03;77.81;96852.23;1664584;86;20782;-93
2021/01/14 01:14:11;;;;;;;;;;;;;;;0.03;77.83;96844.98;1689403;84;25643;-92
2021/01/14 01:16:58;;;;;;;;;;;;;;;0.02;77.87;96842.86;1664770;86;22238;-93
2021/01/14 01:19:44;;;;;;;;;;;;;;;0.02;77.92;96842.02;1664556;86;27088;-93
2021/01/14 01:22:31;;;;;;;;;;;;;;;-0.01;77.96;96843.87;1664823;86;24589;-95
2021/01/14 01:25:17;;;;;;;;;;;;;;;-0.03;77.99;96828.13;1664722;86;20313;-94
2021/01/14 01:28:06;;;;;;;;;;;;;;;-0.07;78.02;96827.48;1664864;86;24885;-95
2021/01/14 01:30:52;;;;;;;;;;;;;;;-0.08;78.06;96827.55;1664741;85;22145;-93
2021/01/14 01:33:39;;;;;;;;;;;;;;;-0.10;78.09;96827.63;1664512;86;26370;-92
2021/01/14 01:36:25;;;;;;;;;;;;;;;-0.11;78.13;96823.39;1689008;84;24558;-92
2021/01/14 01:39:11;;;;;;;;;;;;;;;-0.13;78.17;96818.80;1664852;86;20217;-94
2021/01/14 01:42:18;;;;;;;;;;;;;;;-0.14;78.22;96821.45;1688468;85;21107;-92
2021/01/14 01:45:04;;;;;;;;;;;;;;;-0.16;78.25;96818.95;1688569;84;22271;-92
2021/01/14 01:47:50;;;;;;;;;;;;;;;-0.15;78.28;96817.21;1688811;85;26142;-92
2021/01/14 01:50:36;;;;;;;;;;;;;;;-0.15;78.32;96810.33;1688286;85;24867;-93
2021/01/14 01:53:22;;;;;;;;;;;;;;;-0.14;78.37;96807.31;1688615;85;20544;-92
2021/01/14 01:56:08;;;;;;;;;;;;;;;-0.11;78.40;96802.02;1688328;85;25097;-92
2021/01/14 01:58:54;;;;;;;;;;;;;;;-0.11;78.45;96803.30;1688924;85;22587;-94
2021/01/14 02:01:40;;;;;;;;;;;;;;;-0.10;78.48;96800.63;1745315;82;26144;-93
2021/01/14 02:04:26;;;;;;;;;;;;;;;-0.09;78.53;96801.02;1745185;82;24751;-93
2021/01/14 02:07:13;;;;;;;;;;;;;;;-0.06;78.57;96793.60;1745244;82;20287;-92
2021/01/14 02:10:00;;;;;;;;;;;;;;;-0.06;78.61;96793.15;1746766;82;24923;-91
2021/01/14 02:12:46;;;;;;;;;;;;;;;-0.07;78.65;96790.66;1745237;82;22108;-91
2021/01/14 02:15:33;;;;;;;;;;;;;;;-0.08;78.67;96792.84;1745241;81;26212;-93
2021/01/14 02:18:19;;;;;;;;;;;;;;;-0.08;78.70;96792.84;1745246;81;24616;-90
2021/01/14 02:21:05;;;;;;;;;;;;;;;-0.07;78.75;96802.22;1745372;81;20678;-91
2021/01/14 02:23:51;;;;;;;;;;;;;;;-0.06;78.77;96795.72;1732966;83;24880;-93
2021/01/14 02:26:37;;;;;;;;;;;;;;;0.00;78.81;96790.70;1732820;83;23163;-93
2021/01/14 02:29:23;;;;;;;;;;;;;;;0.02;78.83;96797.86;1736328;80;26070;-90
2021/01/14 02:32:09;;;;;;;;;;;;;;;0.04;78.85;96793.48;1778908;80;24675;-91
2021/01/14 02:34:55;;;;;;;;;;;;;;;0.04;78.90;96788.33;1779072;80;20323;-93
2021/01/14 02:37:42;;;;;;;;;;;;;;;0.05;78.92;96790.00;1747759;82;24908;-91
2021/01/14 02:40:28;;;;;;;;;;;;;;;0.04;78.93;96790.91;1747920;81;22172;-92
2021/01/14 02:43:15;;;;;;;;;;;;;;;0.00;78.98;96787.64;1768303;81;26130;-91
2021/01/14 02:46:01;;;;;;;;;;;;;;;-0.02;79.00;96788.20;1768158;81;24765;-95
2021/01/14 02:48:49;;;;;;;;;;;;;;;-0.03;79.01;96787.83;1768215;81;20185;-91
2021/01/14 02:51:35;;;;;;;;;;;;;;;-0.05;79.00;96792.20;1747909;81;24946;-92
2021/01/14 02:54:21;;;;;;;;;;;;;;;-0.05;79.04;96792.66;1724880;83;23136;-91
2021/01/14 02:57:07;;;;;;;;;;;;;;;-0.04;79.06;96786.61;1736925;81;26307;-90
2021/01/14 02:59:53;;;;;;;;;;;;;;;-0.02;79.08;96784.34;1731199;81;24780;-91
2021/01/14 03:02:40;;;;;;;;;;;;;;;0.04;79.07;96791.36;1762503;81;20323;-91
2021/01/14 03:05:26;;;;;;;;;;;;;;;0.06;79.11;96789.05;1768139;81;25097;-91
2021/01/14 03:08:12;;;;;;;;;;;;;;;0.06;79.15;96786.94;1747901;82;21491;-91
2021/01/14 03:10:59;;;;;;;;;;;;;;;0.07;79.16;96789.44;1763032;81;26148;-92
2021/01/14 03:13:45;;;;;;;;;;;;;;;0.04;79.19;96790.06;1768243;81;25770;-90
2021/01/14 03:16:31;;;;;;;;;;;;;;;-0.03;79.21;96789.56;1747853;82;20289;-91
2021/01/14 03:19:17;;;;;;;;;;;;;;;-0.03;79.20;96789.11;1747811;82;24323;-90
2021/01/14 03:22:03;;;;;;;;;;;;;;;-0.05;79.22;96790.09;1760854;81;22371;-90
2021/01/14 03:24:49;;;;;;;;;;;;;;;-0.04;79.25;96788.73;1768318;81;27244;-90
2021/01/14 03:27:35;;;;;;;;;;;;;;;-0.08;79.27;96792.39;1768211;81;24651;-92
2021/01/14 03:30:21;;;;;;;;;;;;;;;-0.10;79.27;96790.80;1757894;81;20582;-92
2021/01/14 03:33:07;;;;;;;;;;;;;;;-0.13;79.29;96791.81;1724219;83;24916;-92
2021/01/14 03:35:54;;;;;;;;;;;;;;;-0.14;79.30;96786.29;1680650;84;21847;-93
2021/01/14 03:38:40;;;;;;;;;;;;;;;-0.15;79.30;96792.79;1689309;85;26107;-92
2021/01/14 03:41:26;;;;;;;;;;;;;;;-0.16;79.32;96791.95;1689232;82;24797;-91
2021/01/14 03:44:12;;;;;;;;;;;;;;;-0.16;79.33;96788.10;1689237;85;20328;-92
2021/01/14 03:47:01;;;;;;;;;;;;;;;-0.13;79.37;96790.98;1689332;85;24990;-91
2021/01/14 03:49:47;;;;;;;;;;;;;;;-0.15;79.38;96787.65;1689248;85;22223;-94
2021/01/14 03:52:33;;;;;;;;;;;;;;;-0.17;79.38;96789.49;1689277;85;26132;-91
2021/01/14 03:55:21;;;;;;;;;;;;;;;-0.20;79.40;96791.75;1689273;85;25509;-93
2021/01/14 03:58:09;;;;;;;;;;;;;;;-0.24;79.41;96799.72;1689358;85;20281;-93
2021/01/14 04:00:54;;;;;;;;;;;;;;;-0.26;79.44;96797.67;1689272;83;24896;-93
2021/01/14 04:03:40;;;;;;;;;;;;;;;-0.27;79.44;96794.27;1689425;85;22167;-92
2021/01/14 04:06:28;;;;;;;;;;;;;;;-0.29;79.47;96797.84;1655272;86;26102;-91
2021/01/14 04:09:14;;;;;;;;;;;;;;;-0.33;79.48;96798.92;1684354;85;24604;-94
2021/01/14 04:12:00;;;;;;;;;;;;;;;-0.34;79.49;96803.69;1684280;85;20269;-92
2021/01/14 04:14:50;;;;;;;;;;;;;;;-0.39;79.51;96806.50;1692103;82;25829;-93
2021/01/14 04:17:34;;;;;;;;;;;;;;;-0.40;79.54;96812.55;1707389;82;22115;-93
2021/01/14 04:20:20;;;;;;;;;;;;;;;-0.43;79.56;96807.09;1707153;82;26018;-90
2021/01/14 04:23:06;;;;;;;;;;;;;;;-0.46;79.58;96818.83;1735448;80;24606;-93
2021/01/14 04:25:53;;;;;;;;;;;;;;;-0.50;79.63;96825.50;1707403;82;20268;-94
2021/01/14 04:28:39;;;;;;;;;;;;;;;-0.53;79.64;96822.63;1707383;82;25045;-92
2021/01/14 04:31:25;;;;;;;;;;;;;;;-0.57;79.67;96824.98;1707337;82;22171;-94
2021/01/14 04:34:13;;;;;;;;;;;;;;;-0.55;79.70;96827.48;1709970;82;26559;-93
2021/01/14 04:37:00;;;;;;;;;;;;;;;-0.51;79.72;96831.55;1707228;82;25447;-91
2021/01/14 04:39:48;;;;;;;;;;;;;;;-0.50;79.76;96839.63;1707187;82;20332;-93
2021/01/14 04:42:33;;;;;;;;;;;;;;;-0.52;79.79;96842.72;1707180;82;24910;-92
2021/01/14 04:45:20;;;;;;;;;;;;;;;-0.55;79.82;96849.31;1707335;82;22422;-94
2021/01/14 04:48:07;;;;;;;;;;;;;;;-0.51;79.86;96853.38;1707406;82;26244;-95
2021/01/14 04:50:54;;;;;;;;;;;;;;;-0.48;79.89;96848.91;1707414;82;24609;-91
2021/01/14 04:53:40;;;;;;;;;;;;;;;-0.46;79.94;96852.23;1707390;82;20356;-91
2021/01/14 04:56:26;;;;;;;;;;;;;;;-0.48;79.95;96852.76;1707200;82;25213;-94
2021/01/14 04:59:12;;;;;;;;;;;;;;;-0.47;79.98;96858.28;1707449;82;22135;-92
2021/01/14 05:01:58;;;;;;;;;;;;;;;-0.48;79.98;96859.18;1707312;84;27174;-92
2021/01/14 05:04:46;;;;;;;;;;;;;;;-0.45;80.01;96865.91;1707310;82;24625;-93
2021/01/14 05:07:32;;;;;;;;;;;;;;;-0.45;80.02;96867.20;1707522;84;20311;-94
2021/01/14 05:10:20;;;;;;;;;;;;;;;-0.43;80.05;96869.22;1707379;82;25005;-94
2021/01/14 05:13:07;;;;;;;;;;;;;;;-0.37;80.06;96874.05;1707369;82;22356;-93
2021/01/14 05:15:53;;;;;;;;;;;;;;;-0.37;80.08;96873.21;1707296;82;26136;-95
2021/01/14 05:18:40;;;;;;;;;;;;;;;-0.37;80.10;96871.92;1707447;82;24788;-94
2021/01/14 05:21:26;;;;;;;;;;;;;;;-0.40;80.11;96876.79;1707514;84;20269;-95
2021/01/14 05:24:13;;;;;;;;;;;;;;;-0.42;80.11;96879.42;1707363;82;24758;-94
2021/01/14 05:26:59;;;;;;;;;;;;;;;-0.40;80.12;96881.92;1707383;82;22096;-94
2021/01/14 05:29:45;;;;;;;;;;;;;;;-0.40;80.12;96883.21;1707195;84;27121;-95
2021/01/14 05:32:34;;;;;;;;;;;;;;;-0.40;80.14;96889.64;1707385;82;25584;-94
2021/01/14 05:35:20;;;;;;;;;;;;;;;-0.43;80.16;96893.17;1707470;82;20539;-96
2021/01/14 05:38:09;;;;;;;;;;;;;;;-0.46;80.15;96897.20;1736222;81;25126;-95
2021/01/14 05:41:18;;;;;;;;;;;;;;;-0.48;80.16;96899.01;1708139;84;20169;-96
2021/01/14 05:43:59;;;;;;;;;;;;;;;-0.52;80.18;96900.08;1708037;82;26207;-95
2021/01/14 05:46:48;;;;;;;;;;;;;;;-0.54;80.17;96904.45;1707415;84;24626;-94
2021/01/14 05:49:35;;;;;;;;;;;;;;;-0.51;80.19;96908.62;1707584;82;20403;-94
2021/01/14 05:52:22;;;;;;;;;;;;;;;-0.55;80.21;96911.81;1707817;82;24987;-94
2021/01/14 05:55:28;;;;;;;;;;;;;;;-0.62;80.22;96919.44;1707864;82;20284;-95
2021/01/14 05:58:15;;;;;;;;;;;;;;;-0.72;80.22;96919.52;1707841;82;26200;-96
2021/01/14 06:01:01;;;;;;;;;;;;;;;-0.76;80.23;96934.67;1708260;82;24691;-94
2021/01/14 06:03:47;;;;;;;;;;;;;;;-0.84;80.23;96944.50;1707722;82;20206;-96
2021/01/14 06:06:34;;;;;;;;;;;;;;;-0.89;80.22;96943.89;1707825;82;25057;-95
2021/01/14 06:09:21;;;;;;;;;;;;;;;-0.93;80.23;96941.91;1708105;82;22052;-96
2021/01/14 06:15:36;;;;;;;;;;;;;;;-1.00;80.24;96953.40;1708221;84;20673;-95
2021/01/14 06:18:23;;;;;;;;;;;;;;;-1.03;80.25;96957.38;1735903;81;20402;-96
2021/01/14 06:21:11;;;;;;;;;;;;;;;-1.04;80.25;96953.63;1708456;82;25092;-96
2021/01/14 06:24:03;;;;;;;;;;;;;;;-1.07;80.27;96960.17;1708773;82;22242;-95
2021/01/14 06:26:51;;;;;;;;;;;;;;;-1.10;80.28;96962.89;1708735;82;26097;-94
2021/01/14 06:33:07;;;;;;;;;;;;;;;-1.14;80.33;96970.33;1700245;80;20270;-95
2021/01/14 06:42:11;;;;;;;;;;;;;;;-1.24;80.37;96983.22;1745073;82;23952;-94
2021/01/14 06:44:57;;;;;;;;;;;;;;;-1.28;80.38;96983.37;1744960;82;24568;-94
2021/01/14 06:47:45;;;;;;;;;;;;;;;-1.31;80.40;96987.34;1722099;82;20297;-95
2021/01/14 06:50:31;;;;;;;;;;;;;;;-1.33;80.43;96998.15;1745750;82;25417;-95
2021/01/14 06:53:17;;;;;;;;;;;;;;;-1.29;80.44;97009.09;1745115;82;22101;-96
2021/01/14 06:59:17;;;;;;;;;;;;;;;-1.31;80.49;97013.00;1687314;82;20188;-96
2021/01/14 07:39:55;;;;;;;;;;;;;;;-1.03;80.74;97093.88;1703061;79;20194;-95
2021/01/14 07:49:35;;;;;;;;;;;;;;;-1.03;80.76;97108.84;1695489;79;20921;-94
2021/01/14 08:04:20;;;;;;;;;;;;;;;-0.97;80.73;97129.55;1787585;80;20316;-96
2021/01/14 08:07:07;;;;;;;;;;;;;;;-0.90;80.75;97138.66;1787158;80;22164;-95
2021/01/14 08:09:54;;;;;;;;;;;;;;;-0.81;80.76;97152.80;1786996;80;26176;-96
2021/01/14 08:15:59;;;;;;;;;;;;;;;-0.82;80.79;97152.00;1787329;80;20449;-94
2021/01/14 08:18:46;;;;;;;;;;;;;;;-0.83;80.79;97152.06;1787474;80;24849;-95
2021/01/14 08:21:33;;;;;;;;;;;;;;;-0.85;80.78;97158.54;1755448;80;21947;-94
2021/01/14 08:24:24;;;;;;;;;;;;;;;-0.85;80.77;97162.39;1751140;80;26043;-96
2021/01/14 08:27:12;;;;;;;;;;;;;;;-0.76;80.76;97165.02;1787014;80;24678;-94
2021/01/14 08:30:01;;;;;;;;;;;;;;;-0.78;80.75;97167.64;1754127;80;20213;-94
2021/01/14 08:32:48;;;;;;;;;;;;;;;-0.72;80.76;97165.25;1751335;80;24739;-96
2021/01/14 08:35:36;;;;;;;;;;;;;;;-0.69;80.74;97167.22;1787096;80;22112;-95
2021/01/14 08:38:23;;;;;;;;;;;;;;;-0.64;80.75;97173.42;1787273;80;26108;-94
2021/01/14 08:41:09;;;;;;;;;;;;;;;-0.61;80.74;97179.28;1751436;80;24774;-94
2021/01/14 08:43:56;;;;;;;;;;;;;;;-0.61;80.74;97184.86;1787249;80;20194;-95
2021/01/14 08:46:45;;;;;;;;;;;;;;;-0.64;80.74;97197.83;1787644;80;24873;-95
2021/01/14 08:49:31;;;;;;;;;;;;;;;-0.67;80.71;97194.13;1751750;80;22219;-94
2021/01/14 08:52:18;;;;;;;;;;;;;;;-0.56;80.69;97211.18;1787195;80;26311;-95
2021/01/14 09:01:14;;;;;;;;;;;;;;;-0.39;80.68;97227.95;1786890;78;24977;-95
2021/01/14 09:04:09;;;;;;;;;;;;;;;-0.39;80.69;97230.52;1787656;80;21940;-95
2021/01/14 09:06:59;;;;;;;;;;;;;;;-0.39;80.66;97238.23;1788629;80;26106;-95
2021/01/14 09:09:45;;;;;;;;;;;;;;;-0.36;80.66;97241.09;1786690;80;24881;-95
2021/01/14 09:12:32;;;;;;;;;;;;;;;-0.35;80.63;97249.20;1787373;80;20171;-95
2021/01/14 09:15:25;;;;;;;;;;;;;;;-0.33;80.63;97250.81;1787763;80;24922;-96
2021/01/14 09:24:23;;;;;;;;;;;;;;;-0.19;80.55;97274.58;1788144;80;24681;-95
2021/01/14 09:27:14;;;;;;;;;;;;;;;-0.18;80.53;97278.83;1787784;80;20378;-93
2021/01/14 09:33:33;;;;;;;;;;;;;;;-0.16;80.47;97276.55;1788288;80;20305;-96
2021/01/14 09:36:23;;;;;;;;;;;;;;;-0.12;80.46;97275.98;1787831;80;26202;-96
2021/01/14 09:39:12;;;;;;;;;;;;;;;-0.05;80.43;97279.47;1788493;80;24651;-96
2021/01/14 09:42:00;;;;;;;;;;;;;;;0.03;80.40;97275.72;1788259;80;20481;-96
2021/01/14 09:51:29;;;;;;;;;;;;;;;0.19;80.37;97286.51;1788297;80;22103;-96
2021/01/14 09:54:25;;;;;;;;;;;;;;;0.16;80.36;97290.52;1754106;80;20272;-96
2021/01/14 09:57:11;;;;;;;;;;;;;;;0.15;80.35;97300.88;1787746;80;20182;-95
2021/01/14 10:00:05;;;;;;;;;;;;;;;0.08;80.33;97301.60;1787221;80;25237;-96
2021/01/14 10:17:46;;;;;;;;;;;;;;;0.11;80.11;97327.17;1616265;89;20201;-96
2021/01/14 10:20:32;;;;;;;;;;;;;;;0.12;80.09;97330.12;1630853;88;26147;-96
2021/01/14 10:23:19;;;;;;;;;;;;;;;0.08;80.07;97331.63;1603468;82;25199;-95
2021/01/14 10:26:13;;;;;;;;;;;;;;;0.03;80.03;97333.13;1745875;82;20369;-95
2021/01/14 10:29:09;;;;;;;;;;;;;;;0.07;80.00;97337.67;1745557;81;24885;-95
2021/01/14 10:31:57;;;;;;;;;;;;;;;0.10;79.95;97337.10;1745183;82;20219;-95
2021/01/14 10:34:46;;;;;;;;;;;;;;;0.15;79.94;97336.44;1750266;82;26103;-95
2021/01/14 10:37:53;;;;;;;;;;;;;;;0.18;79.93;97338.86;1754704;81;20197;-95
2021/01/14 10:40:40;;;;;;;;;;;;;;;0.17;79.89;97339.75;1751632;81;20309;-95
2021/01/14 10:43:26;;;;;;;;;;;;;;;0.16;79.89;97344.99;1752979;81;24889;-95
2021/01/14 10:46:15;;;;;;;;;;;;;;;0.12;79.86;97351.16;1752623;81;20206;-96
2021/01/14 10:49:04;;;;;;;;;;;;;;;0.09;79.84;97349.58;1752576;82;26431;-96
2021/01/14 10:51:49;;;;;;;;;;;;;;;0.12;79.80;97349.42;1752812;82;24607;-96
2021/01/14 10:54:36;;;;;;;;;;;;;;;0.12;79.77;97355.02;1752686;82;20289;-95
2021/01/14 10:57:23;;;;;;;;;;;;;;;0.12;79.75;97351.16;1753153;82;24917;-95
2021/01/14 11:00:10;;;;;;;;;;;;;;;0.12;79.75;97346.84;1752590;82;22240;-94
2021/01/14 11:02:57;;;;;;;;;;;;;;;0.14;79.72;97351.48;1753095;82;26329;-96
2021/01/14 11:05:47;;;;;;;;;;;;;;;0.15;79.70;97354.89;1750251;82;24919;-95
2021/01/14 11:11:49;;;;;;;;;;;;;;;0.22;79.65;97358.38;1778577;80;20983;-96
2021/01/14 11:14:36;;;;;;;;;;;;;;;0.24;79.66;97366.88;1778163;80;22153;-94
2021/01/14 11:17:24;;;;;;;;;;;;;;;0.24;79.66;97366.04;1778123;80;26146;-91
2021/01/14 11:20:12;;;;;;;;;;;;;;;0.16;79.64;97360.42;1741634;80;24719;-94
2021/01/14 11:22:59;;;;;;;;;;;;;;;0.12;79.61;97362.28;1778938;80;20200;-94
2021/01/14 11:25:46;;;;;;;;;;;;;;;0.12;79.58;97366.59;1777886;80;24956;-94
2021/01/14 11:28:33;;;;;;;;;;;;;;;0.10;79.55;97370.54;1778067;80;22585;-95
2021/01/14 11:31:36;;;;;;;;;;;;;;;;;;;;;
2021/01/14 11:34:29;;;;;;;;;;;;;;;0.09;79.51;97367.58;1777866;80;24829;-94
2021/01/14 11:37:17;;;;;;;;;;;;;;;0.18;79.50;97374.03;1777660;80;20570;-94
2021/01/14 11:40:03;;;;;;;;;;;;;;;0.13;79.49;97373.41;1777698;80;24984;-95
2021/01/14 11:42:50;;;;;;;;;;;;;;;0.12;79.48;97385.43;1778003;80;22135;-95
2021/01/14 11:45:36;;;;;;;;;;;;;;;0.13;79.48;97387.55;1777516;80;26138;-93
2021/01/14 11:48:22;;;;;;;;;;;;;;;0.06;79.46;97394.70;1777572;80;24695;-91
2021/01/14 11:51:08;;;;;;;;;;;;;;;0.05;79.45;97394.80;1777578;80;20264;-92
2021/01/14 11:53:55;;;;;;;;;;;;;;;0.01;79.46;97399.22;1742577;80;24901;-93
2021/01/14 11:56:41;;;;;;;;;;;;;;;0.00;79.43;97406.58;1777870;80;22135;-94
2021/01/14 11:59:27;;;;;;;;;;;;;;;-0.02;79.41;97408.38;1777674;80;26144;-94
2021/01/14 12:02:14;;;;;;;;;;;;;;;-0.05;79.42;97406.75;1777738;80;24603;-93
2021/01/14 12:05:01;;;;;;;;;;;;;;;-0.07;79.40;97410.31;1777711;80;20189;-93
2021/01/14 12:07:47;;;;;;;;;;;;;;;-0.12;79.40;97402.80;1777809;80;24200;-93
2021/01/14 12:10:33;;;;;;;;;;;;;;;-0.12;79.38;97413.09;1777837;80;22125;-94
2021/01/14 12:13:20;;;;;;;;;;;;;;;-0.13;79.38;97412.70;1777932;80;26144;-93
2021/01/14 12:16:06;;;;;;;;;;;;;;;-0.09;79.38;97413.39;1744892;81;25540;-93
2021/01/14 12:18:54;;;;;;;;;;;;;;;-0.06;79.37;97416.69;1745624;81;20451;-93
2021/01/14 12:21:40;;;;;;;;;;;;;;;-0.01;79.38;97421.62;1772282;81;25796;-95
2021/01/14 12:24:27;;;;;;;;;;;;;;;0.01;79.41;97428.80;1730320;82;22011;-96
2021/01/14 12:27:13;;;;;;;;;;;;;;;-0.03;79.41;97429.84;1750368;82;26255;-94
2021/01/14 12:30:00;;;;;;;;;;;;;;;-0.03;79.42;97437.55;1750038;82;24744;-95
2021/01/14 12:32:47;;;;;;;;;;;;;;;-0.01;79.42;97446.89;1750335;82;20199;-93
2021/01/14 12:35:33;;;;;;;;;;;;;;;0.04;79.44;97447.97;1750280;82;24915;-94
2021/01/14 12:38:20;;;;;;;;;;;;;;;0.06;79.45;97448.72;1744522;81;22067;-94
2021/01/14 12:41:06;;;;;;;;;;;;;;;0.10;79.46;97457.16;1750086;82;26386;-93
2021/01/14 12:43:53;;;;;;;;;;;;;;;0.10;79.50;97460.56;1749255;81;24562;-93
2021/01/14 12:46:39;;;;;;;;;;;;;;;0.07;79.49;97455.53;1745377;82;20548;-94
2021/01/14 12:49:27;;;;;;;;;;;;;;;0.10;79.50;97464.87;1745547;82;25113;-93
2021/01/14 12:52:13;;;;;;;;;;;;;;;0.09;79.50;97465.77;1745297;82;22147;-94
2021/01/14 12:55:00;;;;;;;;;;;;;;;0.08;79.52;97467.50;1745506;82;26102;-93
2021/01/14 12:57:46;;;;;;;;;;;;;;;0.10;79.52;97476.00;1751405;82;25529;-94
2021/01/14 13:00:32;;;;;;;;;;;;;;;0.07;79.53;97478.69;1750636;81;20178;-93
2021/01/14 13:03:19;;;;;;;;;;;;;;;0.09;79.53;97477.34;1738347;82;24881;-94
2021/01/14 13:06:05;;;;;;;;;;;;;;;0.08;79.53;97482.09;1742148;82;22102;-94
2021/01/14 13:08:51;;;;;;;;;;;;;;;0.06;79.53;97485.17;1748879;82;26904;-93
2021/01/14 13:11:40;;;;;;;;;;;;;;;0.07;79.53;97487.69;1752936;82;24850;-94
2021/01/14 13:14:26;;;;;;;;;;;;;;;0.05;79.54;97490.80;1747153;82;20283;-91
2021/01/14 13:17:14;;;;;;;;;;;;;;;0.07;79.56;97499.27;1745183;82;24808;-95
2021/01/14 13:20:06;;;;;;;;;;;;;;;0.08;79.56;97511.67;1743624;82;22269;-94
2021/01/14 13:22:52;;;;;;;;;;;;;;;0.12;79.56;97510.63;1752040;82;26075;-96
2021/01/14 13:25:38;;;;;;;;;;;;;;;0.18;79.58;97524.08;1745780;82;24696;-95
2021/01/14 13:28:24;;;;;;;;;;;;;;;0.20;79.60;97524.86;1746031;82;20191;-95
2021/01/14 13:31:14;;;;;;;;;;;;;;;0.21;79.60;97523.13;1737052;82;25030;-93
2021/01/14 13:34:04;;;;;;;;;;;;;;;0.23;79.63;97527.28;1735417;82;22233;-94
2021/01/14 13:36:50;;;;;;;;;;;;;;;0.26;79.65;97531.47;1751624;82;26139;-96
2021/01/14 13:39:38;;;;;;;;;;;;;;;0.26;79.68;97537.45;1751299;82;24625;-93
2021/01/14 13:42:24;;;;;;;;;;;;;;;0.28;79.67;97545.09;1745366;82;20361;-94
2021/01/14 13:45:12;;;;;;;;;;;;;;;0.27;79.69;97556.30;1745737;82;25067;-94
2021/01/14 13:47:58;;;;;;;;;;;;;;;0.28;79.68;97555.37;1738419;82;22162;-95
2021/01/14 13:50:44;;;;;;;;;;;;;;;0.26;79.71;97558.04;1749965;82;26093;-95
2021/01/14 13:53:32;;;;;;;;;;;;;;;0.29;79.71;97555.77;1752935;81;24636;-93
2021/01/14 13:56:18;;;;;;;;;;;;;;;0.30;79.73;97560.86;1753271;82;20466;-93
2021/01/14 13:59:05;;;;;;;;;;;;;;;0.30;79.73;97562.14;1753240;81;25089;-94
2021/01/14 14:01:52;;;;;;;;;;;;;;;0.30;79.75;97576.30;1748081;82;22041;-94
2021/01/14 14:04:39;;;;;;;;;;;;;;;0.29;79.75;97577.20;1745625;82;26100;-93
2021/01/14 14:07:25;;;;;;;;;;;;;;;0.31;79.78;97581.84;1722307;83;24576;-94
2021/01/14 14:10:13;;;;;;;;;;;;;;;0.30;79.78;97587.88;1723124;83;20594;-92
2021/01/14 14:12:59;;;;;;;;;;;;;;;0.22;79.80;97586.55;1723352;83;24979;-94
2021/01/14 14:15:45;;;;;;;;;;;;;;;0.23;79.82;97594.17;1697490;83;22169;-94
2021/01/14 14:18:31;;;;;;;;;;;;;;;0.25;79.80;97600.55;1723147;83;26137;-93
2021/01/14 14:21:18;;;;;;;;;;;;;;;0.24;79.81;97599.71;1723323;83;24727;-93
2021/01/14 14:24:04;;;;;;;;;;;;;;;0.29;79.81;97601.64;1723125;83;20288;-92
2021/01/14 14:26:50;;;;;;;;;;;;;;;0.31;79.84;97608.86;1722977;83;25113;-93
2021/01/14 14:29:37;;;;;;;;;;;;;;;0.32;79.86;97616.13;1702335;83;21014;-94
2021/01/14 14:32:23;;;;;;;;;;;;;;;0.30;79.85;97618.75;1723115;83;26256;-95
2021/01/14 14:38:25;;;;;;;;;;;;;;;0.35;79.85;97634.00;1723428;83;20197;-94
2021/01/14 14:41:12;;;;;;;;;;;;;;;0.35;79.87;97637.86;1723298;83;24981;-95
2021/01/14 14:43:58;;;;;;;;;;;;;;;0.39;79.89;97638.11;1698190;83;22181;-94
2021/01/14 14:46:44;;;;;;;;;;;;;;;0.46;79.89;97634.83;1723082;83;26183;-94
2021/01/14 14:49:30;;;;;;;;;;;;;;;0.49;79.92;97644.56;1723112;83;24630;-93
2021/01/14 14:52:16;;;;;;;;;;;;;;;0.47;79.93;97650.66;1723298;83;20562;-94
2021/01/14 14:55:04;;;;;;;;;;;;;;;0.49;79.93;97654.86;1723127;83;24978;-94
2021/01/14 14:57:49;;;;;;;;;;;;;;;0.54;79.93;97657.23;1723131;83;22442;-95
2021/01/14 15:00:36;;;;;;;;;;;;;;;0.52;79.95;97659.86;1723056;83;26340;-94
2021/01/14 15:03:23;;;;;;;;;;;;;;;0.49;79.94;97662.58;1743907;82;24648;-93
2021/01/14 15:06:10;;;;;;;;;;;;;;;0.47;79.94;97666.95;1731703;82;20369;-94
2021/01/14 15:08:56;;;;;;;;;;;;;;;0.44;79.92;97668.82;1752895;82;24907;-94
2021/01/14 15:11:44;;;;;;;;;;;;;;;0.44;79.91;97668.34;1752898;81;22116;-94
2021/01/14 15:14:31;;;;;;;;;;;;;;;0.46;79.89;97674.72;1753064;82;26101;-94
2021/01/14 15:17:17;;;;;;;;;;;;;;;0.45;79.86;97685.91;1752622;82;24821;-95
2021/01/14 15:20:04;;;;;;;;;;;;;;;0.39;79.86;97691.70;1756877;81;20242;-94
2021/01/14 15:22:50;;;;;;;;;;;;;;;0.37;79.84;97698.67;1753335;81;25496;-95
2021/01/14 15:25:37;;;;;;;;;;;;;;;0.36;79.80;97696.98;1753512;81;21898;-96
2021/01/14 15:31:41;;;;;;;;;;;;;;;0.32;79.77;97705.74;1753122;82;20596;-96
2021/01/14 15:37:44;;;;;;;;;;;;;;;0.27;79.73;97712.78;1753405;82;20968;-96
2021/01/14 15:40:32;;;;;;;;;;;;;;;0.21;79.70;97719.48;1752623;82;21916;-95
2021/01/14 15:43:19;;;;;;;;;;;;;;;0.16;79.68;97734.27;1756776;81;26417;-95
2021/01/14 15:46:07;;;;;;;;;;;;;;;0.19;79.64;97738.44;1752751;82;24562;-96
2021/01/14 15:54:45;;;;;;;;;;;;;;;0.22;79.55;97768.73;1742513;80;22352;-94
2021/01/14 16:03:56;;;;;;;;;;;;;;;0.12;79.50;97784.59;1676225;81;20576;-95
2021/01/14 16:09:48;;;;;;;;;;;;;;;0.09;79.43;97795.01;1756308;81;21920;-95
2021/01/14 16:15:54;;;;;;;;;;;;;;;0.13;79.36;97801.70;1756398;81;20611;-95
2021/01/14 16:18:41;;;;;;;;;;;;;;;0.22;79.33;97807.80;1755843;81;20244;-94
2021/01/14 16:21:28;;;;;;;;;;;;;;;0.25;79.29;97809.80;1756006;81;24921;-94
2021/01/14 16:24:15;;;;;;;;;;;;;;;0.26;79.28;97813.21;1755710;81;22164;-94
2021/01/14 16:27:01;;;;;;;;;;;;;;;0.22;79.25;97818.91;1755786;81;26132;-94
2021/01/14 16:29:49;;;;;;;;;;;;;;;0.23;79.23;97818.45;1755122;81;24579;-94
2021/01/14 16:32:35;;;;;;;;;;;;;;;0.15;79.21;97827.78;1748215;81;20481;-94
2021/01/14 16:35:23;;;;;;;;;;;;;;;0.10;79.17;97828.41;1745888;82;24920;-94
2021/01/14 16:38:10;;;;;;;;;;;;;;;0.07;79.12;97836.22;1746249;82;22122;-91
2021/01/14 16:40:56;;;;;;;;;;;;;;;0.02;79.09;97841.14;1725477;83;26294;-93
2021/01/14 16:43:43;;;;;;;;;;;;;;;-0.01;79.04;97844.68;1725717;83;24690;-94
2021/01/14 16:46:29;;;;;;;;;;;;;;;-0.02;79.01;97855.41;1725761;83;20349;-94
2021/01/14 16:49:17;;;;;;;;;;;;;;;-0.03;78.97;97854.17;1725744;83;24913;-94
2021/01/14 16:52:05;;;;;;;;;;;;;;;-0.05;78.95;97859.37;1725768;83;22163;-94
2021/01/14 16:54:51;;;;;;;;;;;;;;;-0.05;78.90;97855.95;1755167;81;26284;-92
2021/01/14 16:57:38;;;;;;;;;;;;;;;-0.10;78.88;97859.14;1734830;81;25002;-94
2021/01/14 17:00:25;;;;;;;;;;;;;;;-0.15;78.84;97860.60;1730158;83;20307;-94
2021/01/14 17:03:14;;;;;;;;;;;;;;;-0.18;78.83;97868.44;1729809;80;20325;-93